createdAt,value
2019-01-21T00:01:49.449Z,25.77
2019-01-21T00:04:19.321Z,24.10
2019-01-21T00:06:49.194Z,25.90
2019-01-21T00:09:19.123Z,28.83
2019-01-21T00:11:49.143Z,30.90
2019-01-21T00:14:19.052Z,26.30
2019-01-21T00:16:49.417Z,33.63
2019-01-21T00:19:19.368Z,29.93
2019-01-21T00:21:49.311Z,27.37
2019-01-21T00:24:19.177Z,29.37
2019-01-21T00:26:49.131Z,32.73
2019-01-21T00:29:19.172Z,32.53
2019-01-21T00:31:49.027Z,31.60
2019-01-21T00:34:19.069Z,31.73
2019-01-21T00:36:48.917Z,33.23
2019-01-21T00:39:18.841Z,34.60
2019-01-21T00:41:48.789Z,35.73
2019-01-21T00:44:18.656Z,32.90
2019-01-21T00:46:48.594Z,33.57
2019-01-21T00:49:18.490Z,35.20
2019-01-21T00:51:48.446Z,37.77
2019-01-21T00:54:18.301Z,38.17
2019-01-21T00:56:48.159Z,35.87
2019-01-21T00:59:18.161Z,34.80
2019-01-21T01:01:48.300Z,35.50
2019-01-21T01:04:18.340Z,35.10
2019-01-21T01:06:48.235Z,33.97
2019-01-21T01:09:18.168Z,32.23
2019-01-21T01:11:48.049Z,36.10
2019-01-21T01:14:17.954Z,34.87
2019-01-21T01:16:47.938Z,33.90
2019-01-21T01:19:17.780Z,31.80
2019-01-21T01:21:47.761Z,33.90
2019-01-21T01:24:17.752Z,31.93
2019-01-21T01:26:47.735Z,30.30
2019-01-21T01:29:17.678Z,29.43
2019-01-21T01:31:47.744Z,32.67
2019-01-21T01:34:17.630Z,31.70
2019-01-21T01:36:47.494Z,31.20
2019-01-21T01:39:17.359Z,28.70
2019-01-21T01:41:47.248Z,31.53
2019-01-21T01:44:17.169Z,30.70
2019-01-21T01:46:47.463Z,30.80
2019-01-21T01:49:17.394Z,30.57
2019-01-21T01:51:47.357Z,28.57
2019-01-21T01:54:17.288Z,27.70
2019-01-21T01:56:47.159Z,29.73
2019-01-21T01:59:17.006Z,31.57
2019-01-21T02:01:46.893Z,29.73
2019-01-21T02:04:16.871Z,27.43
2019-01-21T02:06:46.843Z,28.30
2019-01-21T02:09:16.703Z,28.03
2019-01-21T02:11:46.631Z,29.73
2019-01-21T02:14:16.498Z,30.70
2019-01-21T02:16:46.462Z,28.47
2019-01-21T02:19:16.321Z,29.27
2019-01-21T02:21:46.209Z,28.90
2019-01-21T02:24:16.580Z,28.93
2019-01-21T02:26:55.493Z,30.37
2019-01-21T02:29:36.675Z,28.27
2019-01-21T02:32:23.123Z,29.77
2019-01-21T02:35:28.151Z,28.20
2019-01-21T02:38:31.255Z,29.67
2019-01-21T02:41:32.456Z,27.57
2019-01-21T02:44:13.890Z,26.60
2019-01-21T02:47:05.920Z,28.17
2019-01-21T02:50:04.084Z,25.87
2019-01-21T02:53:36.665Z,26.20
2019-01-21T02:56:23.010Z,25.17
2019-01-21T02:59:26.554Z,24.90
2019-01-21T03:02:52.916Z,25.17
2019-01-21T03:05:43.972Z,27.60
2019-01-21T03:08:56.980Z,24.77
2019-01-21T03:12:10.368Z,27.00
2019-01-21T03:15:10.635Z,24.67
2019-01-21T03:18:15.428Z,25.10
2019-01-21T03:21:32.762Z,25.43
2019-01-21T03:24:39.953Z,27.60
2019-01-21T03:28:02.336Z,25.13
2019-01-21T03:31:17.360Z,24.30
2019-01-21T03:34:21.324Z,25.50
2019-01-21T03:37:25.139Z,24.70
2019-01-21T03:40:38.416Z,25.07
2019-01-21T03:43:46.644Z,25.37
2019-01-21T03:47:09.174Z,27.20
2019-01-21T03:49:55.381Z,26.50
2019-01-21T03:52:50.811Z,26.60
2019-01-21T03:55:20.823Z,26.97
2019-01-21T03:58:50.445Z,24.17
2019-01-21T04:01:42.412Z,26.40
2019-01-21T04:04:35.410Z,25.40
2019-01-21T04:07:49.941Z,25.70
2019-01-21T04:11:02.671Z,24.47
2019-01-21T04:14:08.513Z,24.17
2019-01-21T04:17:14.993Z,26.83
2019-01-21T04:20:00.297Z,24.47
2019-01-21T04:22:50.516Z,26.03
2019-01-21T04:26:03.613Z,25.30
2019-01-21T04:28:45.384Z,26.20
2019-01-21T04:31:46.777Z,26.53
2019-01-21T04:34:58.604Z,25.30
2019-01-21T04:38:02.662Z,24.27
2019-01-21T04:41:06.339Z,23.23
2019-01-21T04:44:00.825Z,24.73
2019-01-21T04:46:52.551Z,23.97
2019-01-21T04:50:16.464Z,25.63
2019-01-21T04:53:12.235Z,27.10
2019-01-21T04:56:32.389Z,26.90
2019-01-21T04:59:49.403Z,26.37
2019-01-21T05:02:58.195Z,25.90
2019-01-21T05:05:49.036Z,25.83
2019-01-21T05:09:06.898Z,25.33
2019-01-21T05:12:04.543Z,26.90
2019-01-21T05:15:19.782Z,25.00
2019-01-21T05:18:41.330Z,26.10
2019-01-21T05:21:47.773Z,24.67
2019-01-21T05:24:51.843Z,25.50
2019-01-21T05:27:55.150Z,25.47
2019-01-21T05:31:06.333Z,29.03
2019-01-21T05:34:00.445Z,25.90
2019-01-21T05:37:08.360Z,29.10
2019-01-21T05:40:00.409Z,26.97
2019-01-21T05:42:53.845Z,28.50
2019-01-21T05:46:14.627Z,30.00
2019-01-21T05:49:14.869Z,28.67
2019-01-21T05:52:37.985Z,28.13
2019-01-21T05:55:50.191Z,29.70
2019-01-21T05:58:45.894Z,27.80
2019-01-21T06:01:51.159Z,29.80
2019-01-21T06:04:32.936Z,29.97
2019-01-21T06:07:50.814Z,29.50
2019-01-21T06:10:42.754Z,32.67
2019-01-21T06:13:49.877Z,30.50
2019-01-21T06:16:50.682Z,31.50
2019-01-21T06:19:57.449Z,31.50
2019-01-21T06:23:16.602Z,30.17
2019-01-21T06:26:39.863Z,29.10
2019-01-21T06:29:38.755Z,28.03
2019-01-21T06:32:32.709Z,27.20
2019-01-21T06:35:16.616Z,30.70
2019-01-21T06:38:11.448Z,29.10
2019-01-21T06:41:44.124Z,29.47
2019-01-21T06:44:56.833Z,26.93
2019-01-21T06:47:58.783Z,31.33
2019-01-21T06:51:05.920Z,31.00
2019-01-21T06:54:11.731Z,30.30
2019-01-21T06:57:21.505Z,32.33
2019-01-21T07:00:27.163Z,33.70
2019-01-21T07:03:33.524Z,31.00
2019-01-21T07:06:58.420Z,26.27
2019-01-21T07:10:18.869Z,28.27
2019-01-21T07:13:28.996Z,18.30
2019-01-21T07:16:29.220Z,27.00
2019-01-21T07:19:40.281Z,15.50
2019-01-21T07:22:43.294Z,22.50
2019-01-21T07:25:45.123Z,32.90
2019-01-21T07:29:05.269Z,32.30
2019-01-21T07:32:18.977Z,27.30
2019-01-21T07:35:18.696Z,32.67
2019-01-21T07:38:00.527Z,34.03
2019-01-21T07:41:27.347Z,32.37
2019-01-21T07:44:24.557Z,28.90
2019-01-21T07:47:28.752Z,28.37
2019-01-21T07:50:31.694Z,30.00
2019-01-21T07:53:37.896Z,30.50
2019-01-21T07:57:03.953Z,28.50
2019-01-21T08:00:05.418Z,31.63
2019-01-21T08:03:07.953Z,27.47
2019-01-21T08:06:04.396Z,29.87
2019-01-21T08:09:32.399Z,29.43
2019-01-21T08:12:40.883Z,28.60
2019-01-21T08:15:42.636Z,28.30
2019-01-21T08:18:58.370Z,29.40
2019-01-21T08:21:49.499Z,29.00
2019-01-21T08:24:44.136Z,28.53
2019-01-21T08:27:47.058Z,30.17
2019-01-21T08:30:54.527Z,28.20
2019-01-21T08:33:59.967Z,29.50
2019-01-21T08:36:49.928Z,30.33
2019-01-21T08:40:05.252Z,31.27
2019-01-21T08:42:49.086Z,29.20
2019-01-21T08:46:03.344Z,28.60
2019-01-21T08:49:18.378Z,27.80
2019-01-21T08:52:12.611Z,29.67
2019-01-21T08:55:32.970Z,30.63
2019-01-21T08:58:39.160Z,27.77
2019-01-21T09:01:45.807Z,31.70
2019-01-21T09:05:01.816Z,29.63
2019-01-21T09:07:55.355Z,30.10
2019-01-21T09:11:10.972Z,29.50
2019-01-21T09:13:54.925Z,30.70
2019-01-21T09:16:59.326Z,29.63
2019-01-21T09:20:16.247Z,28.37
2019-01-21T09:23:03.312Z,30.13
2019-01-21T09:25:55.363Z,29.50
2019-01-21T09:28:52.122Z,30.60
2019-01-21T09:31:37.755Z,29.80
2019-01-21T09:34:49.649Z,32.13
2019-01-21T09:38:04.415Z,28.73
2019-01-21T09:41:22.247Z,30.17
2019-01-21T09:43:58.230Z,29.00
2019-01-21T09:46:55.931Z,29.60
2019-01-21T09:49:24.563Z,30.90
2019-01-21T09:52:05.745Z,28.97
2019-01-21T09:54:39.889Z,29.33
2019-01-21T09:57:21.424Z,31.10
2019-01-21T09:59:56.835Z,27.97
2019-01-21T10:02:50.461Z,31.43
2019-01-21T10:05:20.533Z,29.57
2019-01-21T10:08:21.439Z,32.50
2019-01-21T10:11:32.808Z,24.57
2019-01-21T10:14:30.122Z,27.40
2019-01-21T10:17:12.966Z,23.90
2019-01-21T10:20:15.914Z,29.20
2019-01-21T10:23:48.625Z,20.60
2019-01-21T10:27:05.054Z,22.23
2019-01-21T10:30:05.340Z,23.10
2019-01-21T10:33:08.224Z,21.40
2019-01-21T10:36:18.470Z,23.47
2019-01-21T10:39:13.449Z,18.10
2019-01-21T10:42:14.937Z,18.40
2019-01-21T10:45:23.172Z,14.73
2019-01-21T10:48:21.243Z,20.83
2019-01-21T10:51:27.049Z,15.00
2019-01-21T10:54:16.520Z,12.60
2019-01-21T10:57:08.311Z,24.20
2019-01-21T11:00:15.918Z,27.30
2019-01-21T11:03:11.136Z,12.67
2019-01-21T11:06:34.835Z,17.20
2019-01-21T11:09:48.444Z,18.33
2019-01-21T11:13:15.601Z,20.43
2019-01-21T11:16:03.311Z,25.50
2019-01-21T11:19:09.197Z,22.30
2019-01-21T11:22:10.473Z,24.10
2019-01-21T11:25:02.643Z,24.03
2019-01-21T11:27:49.577Z,29.10
2019-01-21T11:30:44.526Z,23.90
2019-01-21T11:33:57.816Z,22.80
2019-01-21T11:37:09.401Z,26.27
2019-01-21T11:40:10.335Z,24.90
2019-01-21T11:43:16.607Z,25.80
2019-01-21T11:46:13.260Z,25.97
2019-01-21T11:49:18.623Z,25.27
2019-01-21T11:52:20.838Z,25.90
2019-01-21T11:55:28.231Z,22.27
2019-01-21T11:58:42.687Z,21.40
2019-01-21T12:01:49.355Z,21.87
2019-01-21T12:04:38.469Z,20.37
2019-01-21T12:07:36.734Z,16.00
2019-01-21T12:10:34.103Z,20.23
2019-01-21T12:14:00.706Z,22.73
2019-01-21T12:17:15.617Z,22.50
2019-01-21T12:20:17.033Z,20.70
2019-01-21T12:23:11.260Z,20.00
2019-01-21T12:25:47.474Z,21.90
2019-01-21T12:28:51.781Z,21.60
2019-01-21T12:31:48.395Z,21.43
2019-01-21T12:34:44.173Z,21.37
2019-01-21T12:37:30.952Z,20.93
2019-01-21T12:40:57.299Z,20.43
2019-01-21T12:44:17.647Z,21.37
2019-01-21T12:46:57.164Z,20.60
2019-01-21T12:50:13.457Z,21.80
2019-01-21T12:53:24.378Z,19.73
2019-01-21T12:56:46.178Z,20.03
2019-01-21T12:59:44.753Z,22.50
2019-01-21T13:02:34.525Z,20.17
2019-01-21T13:05:19.818Z,20.40
2019-01-21T13:08:15.633Z,21.80
2019-01-21T13:11:20.833Z,21.00
2019-01-21T13:14:14.132Z,21.17
2019-01-21T13:16:58.072Z,19.23
2019-01-21T13:19:53.127Z,18.90
2019-01-21T13:23:00.680Z,18.97
2019-01-21T13:25:57.444Z,20.17
2019-01-21T13:29:05.318Z,20.80
2019-01-21T13:32:19.499Z,20.70
2019-01-21T13:35:29.657Z,18.97
2019-01-21T13:38:13.940Z,17.37
2019-01-21T13:41:36.548Z,18.03
2019-01-21T13:45:03.105Z,19.50
2019-01-21T13:48:19.659Z,19.80
2019-01-21T13:51:19.699Z,18.27
2019-01-21T13:54:33.899Z,19.10
2019-01-21T13:57:15.237Z,19.23
2019-01-21T14:00:11.229Z,20.70
2019-01-21T14:03:27.886Z,19.70
2019-01-21T14:06:45.568Z,19.97
2019-01-21T14:09:50.490Z,19.10
2019-01-21T14:12:50.224Z,19.90
2019-01-21T14:15:58.364Z,19.53
2019-01-21T14:19:18.911Z,19.20
2019-01-21T14:22:25.492Z,19.70
2019-01-21T14:25:45.207Z,18.70
2019-01-21T14:29:03.668Z,18.50
2019-01-21T14:32:11.311Z,19.70
2019-01-21T14:35:30.749Z,20.23
2019-01-21T14:38:21.327Z,19.57
2019-01-21T14:41:57.276Z,18.20
2019-01-21T14:45:02.156Z,18.37
2019-01-21T14:48:18.425Z,20.03
2019-01-21T14:51:31.447Z,20.20
2019-01-21T14:54:55.621Z,19.50
2019-01-21T14:58:12.791Z,19.90
2019-01-21T15:01:04.088Z,20.67
2019-01-21T15:03:46.335Z,18.60
2019-01-21T15:10:15.000Z,20.73
2019-01-21T15:13:13.220Z,20.00
2019-01-21T15:16:30.964Z,18.70
2019-01-21T15:19:11.449Z,19.70
2019-01-21T15:22:23.692Z,19.53
2019-01-21T15:25:38.226Z,18.13
2019-01-21T15:29:00.072Z,20.50
2019-01-21T15:31:47.276Z,20.47
2019-01-21T15:34:47.695Z,20.97
2019-01-21T15:37:48.122Z,19.00
2019-01-21T15:40:57.653Z,18.97
2019-01-21T15:43:37.763Z,20.80
2019-01-21T15:46:47.170Z,21.17
2019-01-21T15:49:51.059Z,20.60
2019-01-21T15:52:36.803Z,20.83
2019-01-21T15:55:41.383Z,21.53
2019-01-21T15:58:32.099Z,22.70
2019-01-21T16:01:38.326Z,21.13
2019-01-21T16:04:24.712Z,21.53
2019-01-21T16:07:14.080Z,20.03
2019-01-21T16:10:06.585Z,20.23
2019-01-21T16:13:17.328Z,21.77
2019-01-21T16:16:49.917Z,20.43
2019-01-21T16:19:23.033Z,21.70
2019-01-21T16:22:36.219Z,21.40
2019-01-21T16:25:33.579Z,19.80
2019-01-21T16:28:27.933Z,21.40
2019-01-21T16:31:26.059Z,21.17
2019-01-21T16:34:35.897Z,19.93
2019-01-21T16:37:37.461Z,22.40
2019-01-21T16:40:36.128Z,23.70
2019-01-21T16:43:06.008Z,25.47
2019-01-21T16:45:35.968Z,23.43
2019-01-21T16:48:05.877Z,23.03
2019-01-21T16:50:35.873Z,21.43
2019-01-21T16:53:05.890Z,23.60
2019-01-21T16:55:35.838Z,22.87
2019-01-21T16:58:05.756Z,22.17
2019-01-21T17:00:35.712Z,22.37
2019-01-21T17:03:05.723Z,22.07
2019-01-21T17:05:35.758Z,21.43
2019-01-21T17:08:05.797Z,21.77
2019-01-21T17:10:39.333Z,21.27
2019-01-21T17:13:07.447Z,22.80
2019-01-21T17:15:37.340Z,24.40
2019-01-21T17:18:07.255Z,23.10
2019-01-21T17:20:37.149Z,22.70
2019-01-21T17:23:07.138Z,22.83
2019-01-21T17:25:37.254Z,22.30
2019-01-21T17:28:07.307Z,22.17
2019-01-21T17:30:37.177Z,19.97
2019-01-21T17:33:07.119Z,21.20
2019-01-21T17:35:37.078Z,23.00
2019-01-21T17:38:06.984Z,21.73
2019-01-21T17:40:36.866Z,28.03
2019-01-21T17:43:06.815Z,22.77
2019-01-21T17:45:36.875Z,23.87
2019-01-21T17:48:06.815Z,25.73
2019-01-21T17:50:36.806Z,23.47
2019-01-21T17:53:06.959Z,24.13
2019-01-21T17:55:37.119Z,22.10
2019-01-21T17:58:07.183Z,23.97
2019-01-21T18:00:37.287Z,67.23
2019-01-21T18:03:07.772Z,33.43
2019-01-21T18:05:37.684Z,21.90
2019-01-21T18:08:07.723Z,21.80
2019-01-21T18:10:37.752Z,24.53
2019-01-21T18:13:07.584Z,23.30
2019-01-21T18:15:37.652Z,22.43
2019-01-21T18:18:07.639Z,23.83
2019-01-21T18:20:37.527Z,22.30
2019-01-21T18:23:07.366Z,26.20
2019-01-21T18:25:37.324Z,25.70
2019-01-21T18:28:07.224Z,29.03
2019-01-21T18:30:37.194Z,27.47
2019-01-21T18:33:07.085Z,27.77
2019-01-21T18:35:36.989Z,29.00
2019-01-21T18:38:06.915Z,27.00
2019-01-21T18:40:36.960Z,33.83
2019-01-21T18:43:06.905Z,28.03
2019-01-21T18:45:36.856Z,29.43
2019-01-21T18:48:06.704Z,26.20
2019-01-21T18:50:36.590Z,26.87
2019-01-21T18:53:06.534Z,27.37
2019-01-21T18:55:36.476Z,25.20
2019-01-21T18:58:07.058Z,27.17
2019-01-21T19:00:37.126Z,27.13
2019-01-21T19:03:07.167Z,28.87
2019-01-21T19:05:37.257Z,40.17
2019-01-21T19:08:07.232Z,34.67
2019-01-21T19:10:37.172Z,34.90
2019-01-21T19:13:07.143Z,30.30
2019-01-21T19:15:37.071Z,28.80
2019-01-21T19:18:07.280Z,29.03
2019-01-21T19:20:37.235Z,28.10
2019-01-21T19:23:07.178Z,31.63
2019-01-21T19:25:37.075Z,28.23
2019-01-21T19:28:06.982Z,30.00
2019-01-21T19:30:37.053Z,29.40
2019-01-21T19:33:06.925Z,29.27
2019-01-21T19:35:38.352Z,27.23
2019-01-21T19:38:08.376Z,30.67
2019-01-21T19:40:38.388Z,26.10
2019-01-21T19:43:08.439Z,25.33
2019-01-21T19:45:38.515Z,27.53
2019-01-21T19:48:08.532Z,24.30
2019-01-21T19:50:38.540Z,26.40
2019-01-21T19:53:08.531Z,26.37
2019-01-21T19:55:40.747Z,27.20
2019-01-21T19:58:12.146Z,28.87
2019-01-21T20:00:42.235Z,29.90
2019-01-21T20:03:12.294Z,32.23
2019-01-21T20:05:42.520Z,31.73
2019-01-21T20:08:12.773Z,27.00
2019-01-21T20:10:42.922Z,28.00
2019-01-21T20:13:12.866Z,30.47
2019-01-21T20:15:42.903Z,29.17
2019-01-21T20:18:12.814Z,30.37
2019-01-21T20:20:43.083Z,27.40
2019-01-21T20:23:13.055Z,27.00
2019-01-21T20:25:43.040Z,29.67
2019-01-21T20:28:13.006Z,25.47
2019-01-21T20:30:43.131Z,26.97
2019-01-21T20:33:13.032Z,28.80
2019-01-21T20:35:43.036Z,28.63
2019-01-21T20:38:13.108Z,29.27
2019-01-21T20:40:43.133Z,27.40
2019-01-21T20:43:13.077Z,25.20
2019-01-21T20:45:43.263Z,26.87
2019-01-21T20:48:13.111Z,24.43
2019-01-21T20:50:43.384Z,29.87
2019-01-21T20:53:13.361Z,34.60
2019-01-21T20:55:43.405Z,28.40
2019-01-21T20:58:13.452Z,28.63
2019-01-21T21:00:43.833Z,27.13
2019-01-21T21:03:13.855Z,26.70
2019-01-21T21:05:43.834Z,27.50
2019-01-21T21:08:13.718Z,25.17
2019-01-21T21:10:43.719Z,26.13
2019-01-21T21:13:13.687Z,25.90
2019-01-21T21:15:43.656Z,26.93
2019-01-21T21:18:13.608Z,27.57
2019-01-21T21:20:43.509Z,27.70
2019-01-21T21:23:13.456Z,28.33
2019-01-21T21:25:43.475Z,24.87
2019-01-21T21:28:13.580Z,24.73
2019-01-21T21:30:43.501Z,25.17
2019-01-21T21:33:13.553Z,28.23
2019-01-21T21:35:43.520Z,25.67
2019-01-21T21:38:13.477Z,25.57
2019-01-21T21:40:43.347Z,26.07
2019-01-21T21:43:13.313Z,26.90
2019-01-21T21:45:43.264Z,28.63
2019-01-21T21:48:13.332Z,26.70
2019-01-21T21:50:43.183Z,27.40
2019-01-21T21:53:13.044Z,27.97
2019-01-21T21:55:42.928Z,27.23
2019-01-21T21:58:12.879Z,28.60
2019-01-21T22:00:42.877Z,28.53
2019-01-21T22:03:13.021Z,28.47
2019-01-21T22:05:42.925Z,30.97
2019-01-21T22:08:12.976Z,31.57
2019-01-21T22:10:42.871Z,29.93
2019-01-21T22:13:12.855Z,29.43
2019-01-21T22:15:42.937Z,28.77
2019-01-21T22:18:12.857Z,26.60
2019-01-21T22:20:42.832Z,27.70
2019-01-21T22:23:12.887Z,26.40
2019-01-21T22:25:42.844Z,26.20
2019-01-21T22:28:12.835Z,29.70
2019-01-21T22:30:42.675Z,26.23
2019-01-21T22:33:12.659Z,26.80
2019-01-21T22:35:42.530Z,27.37
2019-01-21T22:38:12.482Z,24.17
2019-01-21T22:40:42.450Z,28.20
2019-01-21T22:43:12.324Z,27.07
2019-01-21T22:45:42.580Z,25.67
2019-01-21T22:48:12.633Z,28.77
2019-01-21T22:50:42.649Z,28.00
2019-01-21T22:53:12.653Z,27.20
2019-01-21T22:55:42.716Z,27.10
2019-01-21T22:58:12.883Z,25.50
2019-01-21T23:01:06.859Z,27.30
2019-01-21T23:03:36.924Z,28.67
2019-01-21T23:06:07.186Z,27.70
2019-01-21T23:08:37.228Z,28.07
2019-01-21T23:11:07.167Z,28.50
2019-01-21T23:13:37.187Z,27.33
2019-01-21T23:16:07.150Z,25.70
2019-01-21T23:18:37.809Z,28.13
2019-01-21T23:21:07.738Z,26.40
2019-01-21T23:23:37.618Z,26.57
2019-01-21T23:26:07.536Z,27.13
2019-01-21T23:28:37.509Z,27.03
2019-01-21T23:31:07.676Z,28.37
2019-01-21T23:33:37.777Z,28.30
2019-01-21T23:36:07.825Z,27.77
2019-01-21T23:38:37.746Z,29.40
2019-01-21T23:41:07.648Z,29.33
2019-01-21T23:43:37.835Z,29.20
2019-01-21T23:46:07.893Z,28.70
2019-01-21T23:48:37.766Z,28.30
2019-01-21T23:51:07.755Z,29.97
2019-01-21T23:53:37.797Z,28.40
2019-01-21T23:56:08.095Z,27.97
2019-01-21T23:58:38.043Z,27.40
